createdAt,value
2022-12-20T00:00:47.006Z,6.07
2022-12-20T00:03:20.056Z,5.99
2022-12-20T00:05:51.442Z,6.05
2022-12-20T00:08:22.705Z,6.04
2022-12-20T00:10:53.991Z,5.91
2022-12-20T00:13:25.252Z,6.01
2022-12-20T00:16:17.933Z,6.00
2022-12-20T00:18:58.409Z,5.99
2022-12-20T00:21:31.775Z,5.94
2022-12-20T00:24:04.978Z,6.05
2022-12-20T00:26:36.281Z,6.13
2022-12-20T00:29:07.861Z,6.22
2022-12-20T00:31:39.749Z,6.11
2022-12-20T00:34:11.177Z,6.27
2022-12-20T00:36:42.463Z,6.14
2022-12-20T00:39:13.729Z,6.25
2022-12-20T00:41:45.047Z,6.27
2022-12-20T00:44:16.341Z,6.26
2022-12-20T00:46:47.657Z,6.16
2022-12-20T00:49:19.274Z,6.24
2022-12-20T00:51:50.546Z,6.31
2022-12-20T00:54:21.815Z,6.21
2022-12-20T00:56:53.065Z,6.45
2022-12-20T00:59:24.341Z,6.53
2022-12-20T01:01:55.757Z,6.61
2022-12-20T01:04:27.418Z,6.71
2022-12-20T01:06:58.703Z,6.72
2022-12-20T01:09:30.005Z,6.87
2022-12-20T01:12:01.418Z,6.93
2022-12-20T01:14:32.690Z,6.99
2022-12-20T01:17:04.031Z,7.05
2022-12-20T01:19:35.459Z,7.01
2022-12-20T01:22:06.721Z,7.16
2022-12-20T01:24:38.092Z,7.21
2022-12-20T01:27:09.456Z,7.29
2022-12-20T01:29:40.721Z,7.34
2022-12-20T01:32:12.072Z,7.34
2022-12-20T01:34:43.347Z,7.44
2022-12-20T01:37:14.597Z,7.40
2022-12-20T01:39:45.886Z,7.53
2022-12-20T01:42:17.219Z,7.55
2022-12-20T01:44:55.863Z,7.62
2022-12-20T01:47:32.252Z,7.63
2022-12-20T01:50:04.719Z,7.66
2022-12-20T01:52:40.938Z,7.71
2022-12-20T01:55:19.991Z,7.73
2022-12-20T01:57:53.583Z,7.76
2022-12-20T02:00:25.078Z,7.78
2022-12-20T02:03:00.425Z,7.83
2022-12-20T02:05:37.713Z,7.85
2022-12-20T02:08:10.928Z,7.77
2022-12-20T02:11:11.249Z,7.90
2022-12-20T02:14:26.833Z,7.85
2022-12-20T02:17:03.277Z,7.96
2022-12-20T02:20:01.316Z,7.99
2022-12-20T02:23:01.874Z,8.03
2022-12-20T02:25:51.520Z,8.07
2022-12-20T02:28:40.421Z,8.09
2022-12-20T02:31:17.237Z,8.14
2022-12-20T02:33:49.443Z,7.92
2022-12-20T02:36:20.711Z,8.10
2022-12-20T02:38:52.128Z,8.22
2022-12-20T02:41:30.219Z,8.25
2022-12-20T02:44:35.831Z,8.28
2022-12-20T02:47:12.695Z,8.30
2022-12-20T02:49:46.365Z,8.29
2022-12-20T02:52:20.857Z,8.28
2022-12-20T02:54:55.359Z,8.35
2022-12-20T02:57:38.678Z,8.24
2022-12-20T03:00:18.482Z,8.40
2022-12-20T03:03:10.452Z,8.44
2022-12-20T03:05:47.456Z,8.46
2022-12-20T03:08:19.507Z,8.48
2022-12-20T03:10:53.239Z,8.32
2022-12-20T03:13:43.901Z,8.41
2022-12-20T03:16:15.220Z,8.48
2022-12-20T03:18:47.941Z,8.46
2022-12-20T03:21:19.283Z,8.46
2022-12-20T03:23:50.591Z,8.47
2022-12-20T03:26:21.926Z,8.48
2022-12-20T03:28:53.207Z,8.49
2022-12-20T03:31:24.547Z,8.51
2022-12-20T03:33:56.109Z,8.51
2022-12-20T03:36:27.476Z,8.44
2022-12-20T03:38:59.080Z,8.44
2022-12-20T03:41:30.369Z,8.53
2022-12-20T03:44:01.743Z,8.40
2022-12-20T03:46:33.171Z,8.48
2022-12-20T03:49:04.739Z,8.47
2022-12-20T03:51:36.006Z,8.47
2022-12-20T03:54:07.395Z,8.39
2022-12-20T03:56:38.727Z,8.43
2022-12-20T03:59:10.045Z,8.43
2022-12-20T04:01:41.526Z,8.55
2022-12-20T04:04:14.945Z,8.52
2022-12-20T04:06:46.294Z,8.49
2022-12-20T04:09:17.549Z,8.48
2022-12-20T04:11:48.890Z,8.45
2022-12-20T04:14:20.130Z,8.44
2022-12-20T04:16:51.393Z,8.41
2022-12-20T04:19:22.693Z,8.41
2022-12-20T04:22:02.698Z,8.32
2022-12-20T04:24:36.291Z,8.37
2022-12-20T04:27:07.561Z,8.36
2022-12-20T04:29:38.800Z,8.38
2022-12-20T04:32:10.077Z,8.39
2022-12-20T04:34:41.355Z,8.41
2022-12-20T04:37:12.725Z,8.41
2022-12-20T04:39:44.151Z,8.41
2022-12-20T04:42:15.537Z,8.32
2022-12-20T04:44:46.809Z,8.46
2022-12-20T04:47:18.062Z,8.38
2022-12-20T04:49:49.306Z,8.44
2022-12-20T04:52:45.523Z,8.55
2022-12-20T04:55:18.924Z,8.47
2022-12-20T04:57:50.204Z,8.57
2022-12-20T05:00:22.230Z,8.58
2022-12-20T05:02:53.625Z,8.59
2022-12-20T05:05:25.440Z,8.59
2022-12-20T05:07:56.916Z,8.61
2022-12-20T05:10:28.261Z,8.57
2022-12-20T05:13:02.807Z,8.62
2022-12-20T05:15:39.009Z,8.59
2022-12-20T05:18:10.697Z,8.62
2022-12-20T05:20:41.978Z,8.64
2022-12-20T05:23:32.252Z,8.69
2022-12-20T05:26:18.616Z,8.71
2022-12-20T05:28:50.344Z,8.72
2022-12-20T05:31:21.705Z,8.73
2022-12-20T05:33:54.050Z,8.72
2022-12-20T05:36:25.410Z,8.70
2022-12-20T05:39:03.601Z,8.62
2022-12-20T05:41:35.717Z,8.59
2022-12-20T05:44:07.919Z,8.59
2022-12-20T05:46:39.258Z,8.66
2022-12-20T05:49:10.551Z,8.65
2022-12-20T05:51:41.809Z,8.64
2022-12-20T05:54:13.162Z,8.62
2022-12-20T05:56:44.445Z,8.62
2022-12-20T05:59:17.668Z,8.64
2022-12-20T06:01:49.116Z,8.64
2022-12-20T06:04:20.869Z,8.57
2022-12-20T06:06:52.532Z,8.68
2022-12-20T06:09:23.786Z,8.70
2022-12-20T06:11:55.050Z,8.69
2022-12-20T06:14:26.495Z,8.70
2022-12-20T06:16:57.801Z,8.68
2022-12-20T06:19:29.064Z,8.67
2022-12-20T06:22:01.111Z,8.70
2022-12-20T06:24:33.531Z,8.71
2022-12-20T06:27:06.899Z,8.60
2022-12-20T06:29:38.271Z,8.63
2022-12-20T06:32:09.575Z,8.77
2022-12-20T06:34:40.998Z,8.78
2022-12-20T06:37:12.723Z,8.68
2022-12-20T06:39:44.036Z,8.80
2022-12-20T06:42:15.503Z,8.73
2022-12-20T06:44:46.858Z,8.81
2022-12-20T06:47:18.123Z,8.83
2022-12-20T06:49:49.391Z,8.83
2022-12-20T06:52:20.661Z,8.83
2022-12-20T06:54:51.915Z,8.85
2022-12-20T06:57:23.238Z,8.85
2022-12-20T06:59:54.883Z,8.83
2022-12-20T07:02:27.748Z,8.77
2022-12-20T07:04:59.621Z,8.89
2022-12-20T07:07:30.922Z,8.87
2022-12-20T07:10:02.302Z,8.89
2022-12-20T07:12:33.573Z,8.81
2022-12-20T07:15:05.300Z,8.74
2022-12-20T07:17:36.692Z,8.93
2022-12-20T07:20:13.283Z,8.94
2022-12-20T07:22:47.723Z,8.92
2022-12-20T07:25:19.279Z,8.76
2022-12-20T07:27:50.686Z,8.90
2022-12-20T07:30:22.007Z,8.90
2022-12-20T07:32:53.279Z,8.82
2022-12-20T07:35:24.559Z,8.90
2022-12-20T07:37:57.428Z,8.85
2022-12-20T07:40:28.856Z,8.93
2022-12-20T07:43:00.210Z,8.94
2022-12-20T07:45:31.557Z,8.92
2022-12-20T07:48:10.247Z,8.95
2022-12-20T07:50:45.267Z,8.67
2022-12-20T07:53:17.818Z,8.96
2022-12-20T07:55:49.368Z,8.95
2022-12-20T07:58:21.775Z,8.98
2022-12-20T08:00:53.451Z,8.99
2022-12-20T08:03:39.514Z,9.01
2022-12-20T08:06:12.602Z,8.99
2022-12-20T08:08:50.887Z,8.96
2022-12-20T08:11:23.558Z,8.90
2022-12-20T08:13:58.035Z,8.83
2022-12-20T08:16:29.589Z,8.83
2022-12-20T08:19:01.131Z,8.82
2022-12-20T08:21:32.415Z,8.76
2022-12-20T08:24:03.953Z,8.84
2022-12-20T08:26:39.772Z,8.85
2022-12-20T08:29:11.077Z,8.89
2022-12-20T08:31:49.414Z,8.81
2022-12-20T08:34:21.586Z,9.00
2022-12-20T08:36:52.859Z,8.96
2022-12-20T08:39:24.274Z,9.00
2022-12-20T08:41:55.554Z,9.04
2022-12-20T08:44:26.828Z,9.08
2022-12-20T08:46:58.191Z,9.10
2022-12-20T08:49:29.477Z,9.16
2022-12-20T08:52:00.862Z,9.21
2022-12-20T08:54:32.268Z,9.28
2022-12-20T08:57:03.651Z,9.29
2022-12-20T08:59:34.952Z,9.36
2022-12-20T09:02:06.702Z,9.41
2022-12-20T09:04:38.188Z,9.48
2022-12-20T09:07:09.550Z,9.48
2022-12-20T09:09:40.808Z,9.58
2022-12-20T09:12:12.064Z,9.59
2022-12-20T09:14:43.539Z,9.64
2022-12-20T09:17:14.822Z,9.73
2022-12-20T09:19:46.129Z,9.79
2022-12-20T09:22:17.418Z,9.83
2022-12-20T09:24:49.161Z,9.86
2022-12-20T09:27:20.435Z,9.89
2022-12-20T09:29:51.752Z,9.90
2022-12-20T09:32:23.039Z,9.63
2022-12-20T09:34:54.422Z,9.95
2022-12-20T09:37:25.756Z,10.00
2022-12-20T09:39:57.084Z,10.05
2022-12-20T09:42:30.114Z,10.10
2022-12-20T09:45:09.569Z,10.16
2022-12-20T09:47:41.930Z,10.16
2022-12-20T09:50:17.544Z,10.25
2022-12-20T09:53:05.865Z,10.30
2022-12-20T09:55:45.338Z,10.35
2022-12-20T09:58:55.130Z,10.39
2022-12-20T10:01:36.285Z,10.43
2022-12-20T10:04:21.317Z,10.48
2022-12-20T10:07:04.531Z,10.50
2022-12-20T10:09:47.920Z,10.39
2022-12-20T10:12:40.483Z,10.54
2022-12-20T10:15:32.029Z,10.52
2022-12-20T10:18:06.289Z,10.53
2022-12-20T10:21:06.472Z,10.57
2022-12-20T10:23:49.568Z,10.55
2022-12-20T10:26:22.836Z,10.73
2022-12-20T10:28:54.778Z,10.71
2022-12-20T10:31:27.238Z,10.99
2022-12-20T10:33:58.768Z,10.99
2022-12-20T10:36:35.877Z,11.08
2022-12-20T10:39:09.520Z,11.08
2022-12-20T10:41:40.766Z,11.10
2022-12-20T10:44:15.393Z,11.09
2022-12-20T10:46:50.721Z,11.00
2022-12-20T10:49:36.935Z,11.06
2022-12-20T10:52:08.233Z,11.05
2022-12-20T10:54:41.799Z,11.03
2022-12-20T10:57:15.919Z,11.01
2022-12-20T10:59:54.876Z,10.96
2022-12-20T11:02:41.322Z,10.90
2022-12-20T11:05:14.327Z,10.88
2022-12-20T11:11:11.536Z,10.85
2022-12-20T11:13:44.550Z,10.84
2022-12-20T11:16:24.172Z,10.86
2022-12-20T11:19:04.238Z,10.94
2022-12-20T11:21:58.902Z,11.02
2022-12-20T11:24:39.098Z,11.07
2022-12-20T11:27:29.743Z,11.22
2022-12-20T11:30:18.449Z,11.26
2022-12-20T11:33:08.810Z,11.28
2022-12-20T11:35:58.360Z,11.30
2022-12-20T11:38:35.588Z,11.30
2022-12-20T11:41:20.990Z,11.30
2022-12-20T11:44:29.204Z,11.34
2022-12-20T11:47:33.863Z,11.40
2022-12-20T11:50:15.815Z,11.38
2022-12-20T11:53:12.770Z,11.49
2022-12-20T11:55:49.203Z,11.60
2022-12-20T11:58:27.677Z,11.56
2022-12-20T12:01:10.369Z,11.46
2022-12-20T12:03:59.040Z,11.49
2022-12-20T12:06:35.846Z,11.41
2022-12-20T12:09:36.619Z,11.36
2022-12-20T12:12:19.260Z,11.29
2022-12-20T12:15:00.506Z,11.26
2022-12-20T12:17:38.474Z,11.23
2022-12-20T12:20:34.794Z,11.17
2022-12-20T12:23:34.515Z,10.98
2022-12-20T12:26:15.476Z,10.85
2022-12-20T12:28:54.448Z,10.88
2022-12-20T12:31:33.869Z,10.81
2022-12-20T12:34:23.468Z,10.75
2022-12-20T12:37:17.055Z,10.75
2022-12-20T12:40:35.634Z,10.76
2022-12-20T12:43:23.316Z,10.78
2022-12-20T12:45:59.025Z,10.67
2022-12-20T12:48:52.353Z,10.81
2022-12-20T12:51:55.655Z,10.77
2022-12-20T12:54:29.836Z,10.80
2022-12-20T12:57:03.323Z,10.82
2022-12-20T12:59:34.616Z,10.87
2022-12-20T13:02:15.559Z,10.91
2022-12-20T13:05:26.436Z,10.90
2022-12-20T13:07:57.889Z,10.88
2022-12-20T13:10:31.317Z,10.87
2022-12-20T13:13:14.183Z,10.86
2022-12-20T13:15:51.411Z,10.87
2022-12-20T13:18:26.167Z,10.85
2022-12-20T13:21:19.079Z,10.60
2022-12-20T13:24:29.104Z,10.81
2022-12-20T13:27:02.088Z,10.65
2022-12-20T13:29:35.609Z,10.65
2022-12-20T13:32:45.348Z,10.62
2022-12-20T13:35:26.151Z,10.57
2022-12-20T13:38:02.142Z,10.54
2022-12-20T13:40:47.762Z,10.51
2022-12-20T13:43:19.043Z,10.47
2022-12-20T13:45:55.855Z,10.44
2022-12-20T13:48:53.648Z,10.43
2022-12-20T13:51:27.428Z,10.28
2022-12-20T13:54:15.295Z,10.20
2022-12-20T13:56:49.816Z,10.30
2022-12-20T13:59:32.420Z,10.27
2022-12-20T14:02:17.852Z,10.24
2022-12-20T14:04:58.988Z,10.22
2022-12-20T14:07:35.259Z,10.18
2022-12-20T14:10:18.058Z,10.18
2022-12-20T14:12:53.578Z,10.13
2022-12-20T14:15:29.729Z,10.11
2022-12-20T14:18:18.611Z,10.08
2022-12-20T14:20:57.844Z,9.92
2022-12-20T14:23:37.554Z,9.96
2022-12-20T14:26:15.657Z,9.91
2022-12-20T14:28:49.646Z,9.92
2022-12-20T14:31:29.929Z,9.90
2022-12-20T14:34:13.720Z,9.90
2022-12-20T14:36:49.874Z,9.88
2022-12-20T14:39:33.524Z,9.83
2022-12-20T14:42:07.512Z,9.79
2022-12-20T14:44:39.681Z,9.77
2022-12-20T14:47:18.953Z,9.72
2022-12-20T14:49:56.628Z,9.73
2022-12-20T14:52:39.098Z,9.72
2022-12-20T14:55:20.419Z,9.69
2022-12-20T14:57:56.541Z,9.68
2022-12-20T15:00:29.284Z,9.63
2022-12-20T15:03:18.070Z,9.67
2022-12-20T15:05:54.911Z,9.67
2022-12-20T15:08:28.835Z,9.65
2022-12-20T15:11:09.530Z,9.65
2022-12-20T15:13:43.569Z,9.65
2022-12-20T15:16:19.501Z,9.65
2022-12-20T15:18:56.328Z,9.68
2022-12-20T15:21:35.387Z,9.67
2022-12-20T15:24:11.743Z,9.57
2022-12-20T15:26:43.200Z,9.66
2022-12-20T15:29:28.928Z,9.68
2022-12-20T15:32:12.408Z,9.68
2022-12-20T15:34:43.800Z,9.58
2022-12-20T15:37:18.843Z,9.69
2022-12-20T15:39:50.668Z,9.69
2022-12-20T15:42:23.523Z,9.60
2022-12-20T15:44:54.801Z,9.61
2022-12-20T15:47:26.180Z,9.72
2022-12-20T15:49:57.558Z,9.74
2022-12-20T15:52:28.891Z,9.62
2022-12-20T15:55:00.299Z,9.70
2022-12-20T15:57:31.563Z,9.62
2022-12-20T16:00:04.194Z,9.62
2022-12-20T16:02:35.895Z,9.69
2022-12-20T16:05:11.563Z,9.64
2022-12-20T16:07:42.852Z,9.68
2022-12-20T16:10:15.220Z,9.68
2022-12-20T16:12:46.726Z,9.68
2022-12-20T16:15:21.172Z,9.69
2022-12-20T16:17:52.490Z,9.69
2022-12-20T16:20:23.865Z,9.65
2022-12-20T16:22:55.230Z,9.71
2022-12-20T16:25:32.378Z,9.74
2022-12-20T16:28:04.038Z,9.71
2022-12-20T16:30:35.342Z,9.77
2022-12-20T16:33:06.717Z,9.65
2022-12-20T16:35:39.144Z,9.69
2022-12-20T16:38:10.487Z,9.83
2022-12-20T16:40:41.916Z,9.66
2022-12-20T16:43:15.966Z,9.88
2022-12-20T16:45:47.264Z,9.90
2022-12-20T16:48:18.723Z,9.91
2022-12-20T16:50:50.000Z,9.92
2022-12-20T16:53:21.287Z,9.92
2022-12-20T16:55:52.543Z,9.96
2022-12-20T16:58:44.838Z,9.97
2022-12-20T17:01:17.844Z,9.99
2022-12-20T17:03:50.972Z,9.99
2022-12-20T17:06:22.405Z,9.99
2022-12-20T17:08:53.684Z,10.03
2022-12-20T17:11:28.554Z,10.03
2022-12-20T17:14:00.651Z,9.94
2022-12-20T17:16:32.022Z,9.95
2022-12-20T17:19:03.579Z,10.02
2022-12-20T17:24:35.924Z,10.02
2022-12-20T17:27:10.489Z,10.00
2022-12-20T17:29:41.914Z,9.90
2022-12-20T17:32:22.057Z,10.00
2022-12-20T17:34:53.656Z,10.00
2022-12-20T17:37:25.171Z,10.00
2022-12-20T17:39:56.506Z,10.01
2022-12-20T17:42:31.559Z,10.00
2022-12-20T17:45:03.489Z,9.96
2022-12-20T17:47:34.876Z,9.98
2022-12-20T17:50:06.900Z,9.96
2022-12-20T17:52:38.291Z,9.97
2022-12-20T17:55:16.224Z,9.96
2022-12-20T17:57:47.917Z,9.92
2022-12-20T18:00:29.651Z,9.94
2022-12-20T18:03:06.881Z,9.89
2022-12-20T18:05:40.006Z,9.84
2022-12-20T18:08:11.327Z,9.94
2022-12-20T18:10:42.662Z,9.94
2022-12-20T18:13:14.053Z,9.95
2022-12-20T18:15:45.290Z,9.95
2022-12-20T18:18:16.565Z,9.95
2022-12-20T18:20:47.861Z,9.93
2022-12-20T18:23:19.135Z,9.87
2022-12-20T18:25:50.386Z,9.94
2022-12-20T18:28:21.642Z,9.93
2022-12-20T18:30:52.919Z,9.89
2022-12-20T18:33:24.197Z,9.92
2022-12-20T18:36:07.691Z,9.91
2022-12-20T18:38:41.092Z,9.91
2022-12-20T18:41:15.169Z,9.90
2022-12-20T18:43:47.607Z,9.89
2022-12-20T18:46:23.243Z,9.79
2022-12-20T18:48:56.958Z,9.78
2022-12-20T18:51:36.395Z,9.87
2022-12-20T18:54:10.448Z,9.88
2022-12-20T18:56:41.807Z,9.86
2022-12-20T18:59:13.407Z,9.81
2022-12-20T19:01:44.831Z,9.83
2022-12-20T19:04:22.500Z,9.79
2022-12-20T19:06:55.780Z,9.70
2022-12-20T19:09:27.076Z,9.63
2022-12-20T19:11:58.501Z,9.64
2022-12-20T19:14:30.005Z,9.70
2022-12-20T19:17:01.478Z,9.73
2022-12-20T19:19:32.822Z,9.73
2022-12-20T19:22:04.196Z,9.73
2022-12-20T19:24:35.873Z,9.70
2022-12-20T19:27:09.308Z,9.70
2022-12-20T19:29:40.590Z,9.69
2022-12-20T19:32:11.911Z,9.68
2022-12-20T19:34:43.161Z,9.68
2022-12-20T19:37:14.435Z,9.68
2022-12-20T19:39:45.730Z,9.70
2022-12-20T19:42:25.320Z,9.64
2022-12-20T19:44:56.845Z,9.70
2022-12-20T19:47:29.226Z,9.71
2022-12-20T19:50:00.747Z,9.72
2022-12-20T19:52:32.145Z,9.74
2022-12-20T19:55:03.641Z,9.74
2022-12-20T19:57:34.976Z,9.75
2022-12-20T20:00:08.613Z,9.77
2022-12-20T20:02:40.229Z,9.66
2022-12-20T20:05:15.225Z,9.79
2022-12-20T20:07:47.016Z,9.79
2022-12-20T20:10:18.544Z,9.70
2022-12-20T20:12:49.851Z,9.80
2022-12-20T20:15:21.120Z,9.84
2022-12-20T20:17:52.468Z,9.73
2022-12-20T20:20:23.811Z,9.86
2022-12-20T20:22:56.104Z,9.86
2022-12-20T20:25:27.381Z,9.82
2022-12-20T20:27:58.709Z,9.86
2022-12-20T20:30:30.243Z,9.87
2022-12-20T20:33:01.601Z,9.87
2022-12-20T20:35:32.991Z,9.84
2022-12-20T20:38:04.655Z,9.87
2022-12-20T20:40:36.345Z,9.80
2022-12-20T20:43:07.857Z,9.88
2022-12-20T20:45:39.155Z,9.88
2022-12-20T20:48:10.439Z,9.84
2022-12-20T20:50:42.737Z,9.86
2022-12-20T20:53:14.212Z,9.88
2022-12-20T20:55:46.645Z,9.81
2022-12-20T20:58:18.045Z,9.90
2022-12-20T21:00:51.756Z,9.82
2022-12-20T21:03:23.260Z,9.87
2022-12-20T21:08:46.910Z,9.89
2022-12-20T21:11:18.267Z,9.90
2022-12-20T21:13:49.739Z,9.91
2022-12-20T21:16:22.371Z,9.82
2022-12-20T21:18:58.299Z,9.89
2022-12-20T21:21:29.838Z,9.91
2022-12-20T21:24:01.431Z,9.84
2022-12-20T21:26:32.690Z,9.92
2022-12-20T21:29:04.173Z,9.93
2022-12-20T21:31:36.654Z,9.91
2022-12-20T21:34:08.035Z,9.93
2022-12-20T21:36:39.295Z,9.84
2022-12-20T21:39:13.196Z,9.91
2022-12-20T21:41:44.485Z,9.91
2022-12-20T21:44:15.787Z,9.95
2022-12-20T21:46:47.109Z,9.95
2022-12-20T21:49:18.624Z,9.96
2022-12-20T21:51:49.900Z,9.94
2022-12-20T21:54:21.169Z,9.89
2022-12-20T21:56:52.484Z,9.96
2022-12-20T21:59:23.806Z,9.98
2022-12-20T22:01:55.224Z,9.91
2022-12-20T22:04:26.659Z,9.97
2022-12-20T22:06:57.928Z,9.98
2022-12-20T22:09:29.358Z,9.84
2022-12-20T22:12:00.633Z,9.97
2022-12-20T22:14:31.899Z,9.97
2022-12-20T22:17:03.411Z,9.95
2022-12-20T22:19:36.094Z,9.95
2022-12-20T22:22:07.363Z,9.96
2022-12-20T22:24:38.865Z,9.94
2022-12-20T22:27:11.605Z,9.93
2022-12-20T22:29:43.024Z,9.90
2022-12-20T22:32:14.388Z,9.95
2022-12-20T22:34:45.755Z,9.94
2022-12-20T22:37:17.144Z,9.83
2022-12-20T22:39:49.103Z,9.91
2022-12-20T22:42:20.774Z,9.83
2022-12-20T22:44:54.008Z,9.92
2022-12-20T22:47:25.538Z,9.92
2022-12-20T22:49:56.803Z,9.89
2022-12-20T22:52:28.054Z,9.86
2022-12-20T22:54:59.500Z,9.92
2022-12-20T22:57:30.860Z,9.93
2022-12-20T23:00:03.060Z,9.93
2022-12-20T23:02:34.519Z,9.86
2022-12-20T23:05:06.738Z,9.93
2022-12-20T23:07:38.083Z,9.87
2022-12-20T23:10:29.942Z,9.92
2022-12-20T23:13:19.959Z,9.90
2022-12-20T23:15:51.317Z,9.89
2022-12-20T23:18:22.634Z,9.81
2022-12-20T23:21:12.830Z,9.82
2022-12-20T23:23:44.074Z,9.89
2022-12-20T23:26:16.892Z,9.86
2022-12-20T23:28:48.585Z,9.85
2022-12-20T23:31:20.010Z,9.82
2022-12-20T23:33:51.332Z,9.84
2022-12-20T23:36:22.633Z,9.84
2022-12-20T23:38:53.998Z,9.84
2022-12-20T23:41:25.273Z,9.83
2022-12-20T23:43:56.798Z,9.83
2022-12-20T23:46:28.120Z,9.74
2022-12-20T23:48:59.439Z,9.80
2022-12-20T23:51:30.822Z,9.78
2022-12-20T23:54:02.082Z,9.76
2022-12-20T23:56:33.384Z,9.77
2022-12-20T23:59:04.659Z,9.70
